Time;durP1;ratioP1;P1;durP2;ratioP2;P2;SDS_P1;SDS_P2;PMS_P1;PMS_P2;Temp;Humidity;BMP_temperature;BMP_pressure;BME280_temperature;BME280_humidity;BME280_pressure;Samples;Min_cycle;Max_cycle;Signal;HPM_P1;HPM_P2
2022/10/12 00:01:21;;;;;;;13.30;6.28;;;8.50;88.40;;;;;;5074796;28;20044;-75
2022/10/12 00:03:47;;;;;;;9.77;4.97;;;8.50;88.90;;;;;;5057950;28;20040;-75
2022/10/12 00:06:19;;;;;;;7.50;4.28;;;8.50;88.50;;;;;;5074662;28;20041;-75
2022/10/12 00:08:46;;;;;;;8.55;2.85;;;8.40;88.20;;;;;;5074497;28;20063;-75
2022/10/12 00:11:32;;;;;;;6.70;2.35;;;8.40;88.10;;;;;;5074369;28;20051;-75
2022/10/12 00:13:58;;;;;;;5.03;2.90;;;8.40;87.70;;;;;;5074300;28;20477;-75
2022/10/12 00:16:25;;;;;;;6.03;2.88;;;8.30;87.60;;;;;;5074597;28;20079;-74
2022/10/12 00:18:55;;;;;;;3.85;2.83;;;8.20;87.50;;;;;;5074348;28;20044;-75
2022/10/12 00:21:22;;;;;;;5.18;2.60;;;8.20;87.50;;;;;;5074308;28;20464;-75
2022/10/12 00:23:48;;;;;;;2.80;2.10;;;8.10;87.50;;;;;;5057497;28;20084;-75
2022/10/12 00:26:23;;;;;;;3.20;2.10;;;8.10;87.40;;;;;;5074092;28;20516;-75
2022/10/12 00:28:55;;;;;;;3.50;2.20;;;8.10;87.30;;;;;;5073914;28;20603;-75
2022/10/12 00:31:21;;;;;;;2.67;2.10;;;8.00;87.20;;;;;;5074146;28;20040;-74
2022/10/12 00:33:47;;;;;;;3.10;1.75;;;8.00;87.30;;;;;;5074234;28;20043;-75
2022/10/12 00:36:16;;;;;;;3.78;2.05;;;8.00;87.40;;;;;;5057514;28;20115;-74
2022/10/12 00:38:42;;;;;;;2.50;1.63;;;7.90;87.30;;;;;;5074059;28;20098;-74
2022/10/12 00:41:08;;;;;;;1.85;1.75;;;7.90;87.30;;;;;;5073807;28;20129;-75
2022/10/12 00:43:40;;;;;;;3.42;1.70;;;7.90;87.40;;;;;;5073560;28;20044;-75
2022/10/12 00:46:25;;;;;;;3.83;1.85;;;7.90;87.50;;;;;;5073417;28;20040;-75
2022/10/12 00:49:19;;;;;;;2.30;2.10;;;7.90;87.60;;;;;;5073484;28;20508;-74
2022/10/12 00:51:49;;;;;;;2.35;2.13;;;7.90;87.60;;;;;;5071026;28;20071;-75
2022/10/12 00:54:21;;;;;;;2.53;1.83;;;7.90;87.60;;;;;;5073625;28;20036;-75
2022/10/12 00:56:49;;;;;;;4.15;1.83;;;7.80;87.50;;;;;;5073566;28;20040;-75
2022/10/12 00:59:20;;;;;;;4.20;2.42;;;7.80;87.60;;;;;;5073407;28;20080;-75
2022/10/12 01:01:46;;;;;;;3.13;2.35;;;7.80;87.80;;;;;;5073584;28;20066;-75
2022/10/12 01:04:12;;;;;;;2.40;2.03;;;7.80;87.80;;;;;;5073499;28;20040;-75
2022/10/12 01:06:38;;;;;;;4.43;2.05;;;7.80;87.90;;;;;;5073410;28;20484;-76
2022/10/12 01:09:04;;;;;;;2.95;1.27;;;7.80;88.00;;;;;;5073352;28;20036;-74
2022/10/12 01:11:30;;;;;;;4.45;1.55;;;7.70;88.00;;;;;;5073095;28;20032;-76
2022/10/12 01:13:57;;;;;;;2.90;1.90;;;7.80;87.90;;;;;;5073268;28;20044;-75
2022/10/12 01:16:28;;;;;;;6.30;2.50;;;7.70;88.10;;;;;;5056464;28;20493;-74
2022/10/12 01:19:32;;;;;;;2.13;1.55;;;7.70;88.50;;;;;;5072992;28;20094;-75
2022/10/12 01:22:03;;;;;;;2.53;1.63;;;7.70;88.40;;;;;;5051274;28;20048;-75
2022/10/12 01:24:38;;;;;;;2.53;1.75;;;7.60;88.00;;;;;;5056696;28;20075;-76
2022/10/12 01:27:20;;;;;;;3.63;2.38;;;7.60;88.10;;;;;;5056247;28;20044;-76
2022/10/12 01:29:57;;;;;;;2.45;2.22;;;7.60;88.20;;;;;;5072678;28;20047;-75
2022/10/12 01:32:25;;;;;;;2.95;2.50;;;7.50;88.10;;;;;;5072968;28;20055;-74
2022/10/12 01:35:09;;;;;;;5.05;2.90;;;7.60;88.30;;;;;;5072679;28;20047;-75
2022/10/12 01:38:10;;;;;;;4.18;3.25;;;7.50;88.80;;;;;;5073050;28;20476;-75
2022/10/12 01:40:42;;;;;;;3.58;3.17;;;7.60;89.00;;;;;;5072596;28;20083;-75
2022/10/12 01:43:07;;;;;;;4.60;2.90;;;7.60;89.20;;;;;;5072648;28;20102;-75
2022/10/12 01:45:33;;;;;;;5.05;3.40;;;7.60;89.00;;;;;;5072629;28;20044;-76
2022/10/12 01:48:00;;;;;;;7.50;4.10;;;7.60;89.00;;;;;;5055576;28;20056;-75
2022/10/12 01:50:49;;;;;;;5.15;3.35;;;7.70;89.40;;;;;;5072654;28;20048;-74
2022/10/12 01:53:49;;;;;;;6.53;3.95;;;7.80;89.50;;;;;;5072472;28;20511;-75
2022/10/12 01:56:26;;;;;;;4.13;3.58;;;7.80;89.90;;;;;;5072403;28;20117;-75
2022/10/12 01:59:25;;;;;;;6.57;3.75;;;7.80;90.00;;;;;;5056154;28;20107;-75
2022/10/12 02:02:03;;;;;;;6.35;3.83;;;7.70;89.70;;;;;;5071825;28;20159;-75
2022/10/12 02:04:35;;;;;;;3.90;3.50;;;7.70;89.60;;;;;;5072432;28;20131;-75
2022/10/12 02:07:07;;;;;;;4.93;3.80;;;7.80;89.70;;;;;;5072322;28;20401;-74
2022/10/12 02:09:34;;;;;;;6.60;4.20;;;7.80;89.70;;;;;;5072193;28;20044;-76
2022/10/12 02:12:15;;;;;;;5.75;3.10;;;7.80;89.90;;;;;;5072082;28;20045;-75
2022/10/12 02:14:55;;;;;;;9.27;4.55;;;7.80;89.70;;;;;;5072224;28;20043;-74
2022/10/12 02:17:22;;;;;;;7.03;3.70;;;7.80;89.80;;;;;;5072318;28;20614;-75
2022/10/12 02:19:56;;;;;;;5.25;4.18;;;7.80;89.80;;;;;;5072457;28;20365;-75
2022/10/12 02:22:33;;;;;;;5.03;3.70;;;7.80;89.60;;;;;;5072182;28;20040;-75
2022/10/12 02:25:05;;;;;;;7.50;4.28;;;7.80;89.40;;;;;;5069502;28;20060;-75
2022/10/12 02:27:33;;;;;;;6.97;4.78;;;7.70;89.60;;;;;;5035730;28;20048;-75
2022/10/12 02:30:00;;;;;;;6.78;4.90;;;7.80;89.80;;;;;;5051865;28;20513;-74
2022/10/12 02:32:41;;;;;;;7.28;4.63;;;7.80;89.90;;;;;;5051906;28;20037;-75
2022/10/12 02:35:16;;;;;;;8.00;4.32;;;7.90;89.80;;;;;;5035337;28;20055;-75
2022/10/12 02:37:57;;;;;;;8.32;4.90;;;7.90;89.90;;;;;;5051933;28;20469;-75
2022/10/12 02:40:53;;;;;;;8.50;5.75;;;7.90;89.90;;;;;;5051952;28;20048;-75
2022/10/12 02:43:24;;;;;;;8.63;5.10;;;8.00;89.80;;;;;;5051422;28;20045;-75
2022/10/12 02:45:52;;;;;;;6.22;5.30;;;8.00;89.80;;;;;;5051986;28;20049;-76
2022/10/12 02:48:23;;;;;;;9.45;4.40;;;8.00;89.70;;;;;;5051927;28;20053;-78
2022/10/12 02:50:52;;;;;;;9.32;4.88;;;8.00;89.70;;;;;;5035805;28;20048;-77
2022/10/12 02:53:19;;;;;;;11.38;5.47;;;8.00;89.80;;;;;;5052032;28;20037;-78
2022/10/12 02:55:55;;;;;;;10.50;6.38;;;8.00;89.90;;;;;;5035120;28;20040;-77
2022/10/12 02:58:21;;;;;;;10.43;5.28;;;8.00;89.80;;;;;;5035568;28;20543;-77
2022/10/12 03:00:47;;;;;;;10.52;4.90;;;8.00;89.80;;;;;;5051819;28;20048;-77
2022/10/12 03:03:12;;;;;;;8.77;6.10;;;8.00;89.80;;;;;;5051816;28;20040;-78
2022/10/12 03:05:38;;;;;;;10.02;5.90;;;8.00;89.80;;;;;;5035236;28;20049;-77
2022/10/12 03:08:04;;;;;;;10.32;5.97;;;8.00;89.70;;;;;;5051632;28;20037;-78
2022/10/12 03:10:29;;;;;;;10.25;5.70;;;7.90;89.50;;;;;;5035229;28;20041;-77
2022/10/12 03:12:55;;;;;;;10.40;6.55;;;7.90;89.40;;;;;;5051771;28;20064;-77
2022/10/12 03:15:21;;;;;;;8.05;6.38;;;7.90;89.50;;;;;;5038938;28;20039;-77
2022/10/12 03:17:46;;;;;;;9.48;6.50;;;7.90;89.40;;;;;;5055559;28;20052;-78
2022/10/12 03:20:12;;;;;;;8.30;6.45;;;7.90;89.40;;;;;;5038995;28;20098;-77
2022/10/12 03:22:38;;;;;;;7.50;6.05;;;7.80;89.40;;;;;;5055790;28;20047;-77
2022/10/12 03:25:04;;;;;;;9.45;6.63;;;7.90;89.50;;;;;;5022198;28;20045;-77
2022/10/12 03:27:30;;;;;;;13.95;6.82;;;7.90;89.40;;;;;;5038872;28;20140;-77
2022/10/12 03:29:55;;;;;;;13.45;7.85;;;7.90;89.40;;;;;;5038596;28;20557;-77
2022/10/12 03:32:21;;;;;;;18.77;7.40;;;7.80;89.40;;;;;;5038621;28;20130;-76
2022/10/12 03:34:47;;;;;;;12.15;7.53;;;7.80;89.50;;;;;;5055283;28;20075;-78
2022/10/12 03:37:13;;;;;;;9.65;6.57;;;7.90;89.60;;;;;;5055308;28;20474;-77
2022/10/12 03:39:39;;;;;;;11.23;6.65;;;7.90;89.70;;;;;;5054933;28;20489;-78
2022/10/12 03:42:05;;;;;;;12.75;6.63;;;7.90;89.70;;;;;;5054678;28;20052;-77
2022/10/12 03:44:30;;;;;;;10.52;6.47;;;7.90;89.70;;;;;;5054845;28;20040;-77
2022/10/12 03:46:56;;;;;;;10.85;6.25;;;8.00;89.60;;;;;;5054628;28;20135;-77
2022/10/12 03:49:22;;;;;;;10.05;6.88;;;8.00;89.50;;;;;;5038165;28;20049;-77
2022/10/12 03:51:48;;;;;;;9.80;6.18;;;8.00;89.40;;;;;;5054871;28;20041;-77
2022/10/12 03:54:14;;;;;;;9.95;6.38;;;8.00;89.50;;;;;;5054947;28;20481;-77
2022/10/12 03:56:39;;;;;;;11.40;6.28;;;7.90;89.50;;;;;;5054652;28;20131;-76
2022/10/12 03:59:05;;;;;;;9.70;6.15;;;8.00;89.40;;;;;;5054559;28;20112;-77
2022/10/12 04:01:31;;;;;;;9.27;5.90;;;8.00;89.50;;;;;;5054749;28;20045;-77
2022/10/12 04:03:57;;;;;;;9.75;5.95;;;8.00;89.50;;;;;;5054553;28;20045;-78
2022/10/12 04:06:22;;;;;;;13.02;6.57;;;8.00;89.60;;;;;;5054609;28;20033;-76
2022/10/12 04:08:48;;;;;;;12.07;6.65;;;8.00;89.90;;;;;;5054599;28;20080;-76
2022/10/12 04:11:15;;;;;;;15.48;6.93;;;8.00;90.00;;;;;;5054210;28;20047;-77
2022/10/12 04:13:42;;;;;;;14.25;6.78;;;8.10;90.10;;;;;;5054240;28;20041;-77
2022/10/12 04:16:08;;;;;;;10.90;5.75;;;8.00;90.10;;;;;;5037967;28;20083;-77
2022/10/12 04:18:35;;;;;;;12.13;6.53;;;8.10;90.30;;;;;;5054215;28;20041;-77
2022/10/12 04:21:01;;;;;;;9.63;5.78;;;8.10;90.40;;;;;;5054682;28;20048;-78
2022/10/12 04:23:27;;;;;;;17.50;7.15;;;8.10;90.60;;;;;;5053931;28;20097;-77
2022/10/12 04:25:53;;;;;;;16.42;7.55;;;8.10;90.60;;;;;;5036601;28;20041;-77
2022/10/12 04:28:18;;;;;;;11.43;6.07;;;8.10;90.60;;;;;;5037727;28;20044;-78
2022/10/12 04:30:45;;;;;;;13.13;5.80;;;8.10;90.50;;;;;;5037787;28;20071;-77
2022/10/12 04:33:10;;;;;;;16.55;7.57;;;8.10;90.50;;;;;;5053753;28;20037;-77
2022/10/12 04:35:36;;;;;;;15.45;6.50;;;8.10;90.50;;;;;;5054120;28;20040;-77
2022/10/12 04:38:02;;;;;;;13.38;6.00;;;8.10;90.30;;;;;;5037668;28;20037;-76
2022/10/12 04:40:28;;;;;;;11.45;6.03;;;8.10;90.20;;;;;;5054226;28;20044;-76
2022/10/12 04:42:55;;;;;;;12.73;6.43;;;8.10;90.30;;;;;;5064227;28;20044;-76
2022/10/12 04:45:21;;;;;;;17.35;7.53;;;8.10;90.20;;;;;;5040993;28;20481;-78
2022/10/12 04:47:47;;;;;;;15.68;6.15;;;8.10;90.10;;;;;;5073643;28;20068;-76
2022/10/12 04:50:13;;;;;;;11.23;6.18;;;8.10;90.10;;;;;;5066748;28;20040;-77
2022/10/12 04:52:38;;;;;;;12.40;5.72;;;8.10;90.00;;;;;;5073414;28;20036;-77
2022/10/12 04:55:05;;;;;;;9.07;6.40;;;8.00;89.70;;;;;;5057077;28;20041;-77
2022/10/12 04:57:30;;;;;;;9.68;6.20;;;8.00;89.60;;;;;;5073639;28;20037;-77
2022/10/12 04:59:56;;;;;;;14.13;5.43;;;7.90;89.50;;;;;;5057023;28;20491;-77
2022/10/12 05:02:22;;;;;;;8.52;5.10;;;7.80;89.50;;;;;;5056622;28;20033;-76
2022/10/12 05:04:48;;;;;;;9.05;5.38;;;7.80;89.50;;;;;;5073396;28;20060;-76
2022/10/12 05:07:14;;;;;;;6.60;4.60;;;7.80;89.40;;;;;;5073425;28;20439;-76
2022/10/12 05:09:40;;;;;;;7.40;5.13;;;7.70;89.30;;;;;;5073308;28;20040;-77
2022/10/12 05:12:09;;;;;;;10.65;5.20;;;7.60;89.30;;;;;;5073202;28;20385;-76
2022/10/12 05:14:34;;;;;;;11.52;5.38;;;7.60;89.40;;;;;;5073345;28;20084;-76
2022/10/12 05:17:03;;;;;;;18.80;9.00;;;7.50;89.30;;;;;;5056351;28;20036;-76
2022/10/12 05:19:31;;;;;;;11.45;6.28;;;7.50;90.00;;;;;;5072958;28;20040;-76
2022/10/12 05:22:00;;;;;;;11.65;5.30;;;7.50;89.90;;;;;;5056558;28;20511;-76
2022/10/12 05:24:25;;;;;;;13.48;5.75;;;7.50;89.70;;;;;;5040039;28;20044;-76
2022/10/12 05:26:51;;;;;;;12.07;5.80;;;7.50;90.00;;;;;;5073086;28;20059;-76
2022/10/12 05:29:17;;;;;;;12.27;5.95;;;7.40;89.90;;;;;;5056239;28;20036;-76
2022/10/12 05:31:43;;;;;;;8.70;5.80;;;7.50;90.00;;;;;;5073270;28;20067;-76
2022/10/12 05:34:08;;;;;;;12.02;5.72;;;7.50;89.90;;;;;;5056249;28;20046;-76
2022/10/12 05:36:34;;;;;;;14.00;7.55;;;7.50;89.80;;;;;;5072406;28;20033;-77
2022/10/12 05:39:00;;;;;;;9.75;6.40;;;7.40;90.30;;;;;;5073102;28;20411;-76
2022/10/12 05:41:26;;;;;;;10.55;6.15;;;7.40;90.30;;;;;;5039230;28;20040;-76
2022/10/12 05:43:52;;;;;;;12.55;6.90;;;7.40;90.30;;;;;;5072703;28;20040;-76
2022/10/12 05:46:18;;;;;;;10.32;5.72;;;7.40;90.30;;;;;;5056109;28;20389;-76
2022/10/12 05:48:45;;;;;;;10.80;6.00;;;7.30;90.00;;;;;;5072520;28;20045;-76
2022/10/12 05:51:11;;;;;;;10.35;5.70;;;7.30;90.30;;;;;;5056386;28;20052;-76
2022/10/12 05:53:37;;;;;;;11.27;5.03;;;7.30;90.20;;;;;;5055974;28;20520;-76
2022/10/12 05:56:03;;;;;;;10.32;5.25;;;7.30;90.10;;;;;;5055444;28;20040;-76
2022/10/12 05:58:29;;;;;;;9.48;5.32;;;7.20;89.90;;;;;;5071809;28;20041;-77
2022/10/12 06:01:07;;;;;;;10.85;5.93;;;7.10;89.70;;;;;;5072153;28;20040;-76
2022/10/12 06:03:33;;;;;;;10.43;5.05;;;7.10;89.70;;;;;;5070132;28;20051;-75
2022/10/12 06:05:58;;;;;;;13.20;6.55;;;7.10;89.80;;;;;;5053317;28;20036;-75
2022/10/12 06:08:24;;;;;;;11.20;5.85;;;7.00;90.00;;;;;;5057274;28;20084;-76
2022/10/12 06:10:51;;;;;;;15.85;6.82;;;7.00;90.00;;;;;;5045804;28;20044;-75
2022/10/12 06:13:18;;;;;;;12.95;6.95;;;7.00;90.20;;;;;;5056010;28;20047;-76
2022/10/12 06:15:45;;;;;;;13.82;7.10;;;7.00;90.30;;;;;;5055323;28;20041;-76
2022/10/12 06:18:11;;;;;;;11.23;6.47;;;7.10;90.30;;;;;;5057504;28;20041;-75
2022/10/12 06:20:36;;;;;;;12.15;6.30;;;7.10;90.60;;;;;;5039454;28;20083;-75
2022/10/12 06:23:02;;;;;;;13.55;8.43;;;7.10;90.60;;;;;;5033116;28;20469;-75
2022/10/12 06:25:28;;;;;;;13.82;8.50;;;7.00;90.80;;;;;;5061072;28;20478;-76
2022/10/12 06:27:53;;;;;;;14.23;7.85;;;7.00;91.10;;;;;;5059883;28;20053;-75
2022/10/12 06:30:19;;;;;;;17.88;8.32;;;7.00;91.20;;;;;;5023574;28;20127;-75
2022/10/12 06:32:45;;;;;;;16.45;10.32;;;7.00;91.40;;;;;;5058447;28;20040;-75
2022/10/12 06:35:11;;;;;;;15.15;9.15;;;7.10;91.50;;;;;;5057326;28;20116;-76
2022/10/12 06:37:38;;;;;;;13.63;7.80;;;7.00;91.70;;;;;;5038466;28;20051;-75
2022/10/12 06:40:07;;;;;;;14.85;7.28;;;7.00;91.70;;;;;;5040234;28;20100;-76
2022/10/12 06:42:33;;;;;;;12.57;6.95;;;7.00;91.50;;;;;;5058573;28;20052;-76
2022/10/12 06:44:58;;;;;;;12.35;7.80;;;7.00;91.30;;;;;;5057841;28;20094;-76
2022/10/12 06:47:24;;;;;;;15.15;8.70;;;7.10;91.30;;;;;;5060767;28;20675;-76
2022/10/12 06:49:50;;;;;;;18.25;8.77;;;7.00;91.40;;;;;;5048899;28;20054;-76
2022/10/12 06:52:15;;;;;;;15.25;8.75;;;7.00;91.70;;;;;;5060731;28;20041;-76
2022/10/12 06:54:41;;;;;;;14.23;8.77;;;7.00;92.00;;;;;;5062040;28;20115;-77
2022/10/12 06:57:07;;;;;;;13.88;8.70;;;6.90;92.10;;;;;;5066687;28;20068;-75
2022/10/12 06:59:32;;;;;;;15.00;8.80;;;7.00;92.20;;;;;;5049361;28;20044;-74
2022/10/12 07:01:58;;;;;;;13.63;8.07;;;7.00;92.10;;;;;;5045154;28;20082;-75
2022/10/12 07:04:24;;;;;;;14.68;8.98;;;7.00;91.90;;;;;;5060339;28;20428;-76
2022/10/12 07:06:49;;;;;;;17.30;8.00;;;7.10;92.10;;;;;;5066433;28;20048;-74
2022/10/12 07:09:16;;;;;;;11.52;7.68;;;7.10;91.90;;;;;;5047720;28;20043;-74
2022/10/12 07:11:42;;;;;;;15.35;7.78;;;7.10;91.80;;;;;;5058681;28;20090;-74
2022/10/12 07:14:07;;;;;;;17.23;10.18;;;7.10;91.70;;;;;;5046584;28;20044;-74
2022/10/12 07:16:33;;;;;;;12.75;8.10;;;7.10;91.70;;;;;;5043189;28;20083;-74
2022/10/12 07:18:59;;;;;;;13.07;8.45;;;7.20;91.60;;;;;;5048016;28;20461;-75
2022/10/12 07:21:25;;;;;;;13.77;8.18;;;7.20;91.40;;;;;;5061381;28;20060;-75
2022/10/12 07:23:52;;;;;;;11.95;7.90;;;7.30;91.50;;;;;;5061607;28;20059;-75
2022/10/12 07:26:17;;;;;;;12.93;7.65;;;7.30;91.80;;;;;;5060546;28;20048;-75
2022/10/12 07:28:43;;;;;;;16.50;10.27;;;7.40;91.70;;;;;;5059509;28;20571;-74
2022/10/12 07:31:09;;;;;;;17.05;9.55;;;7.50;91.80;;;;;;5045666;28;20053;-75
2022/10/12 07:33:39;;;;;;;14.73;9.85;;;7.60;92.50;;;;;;5058718;28;20456;-74
2022/10/12 07:36:06;;;;;;;15.82;8.93;;;7.60;92.40;;;;;;5061720;28;20044;-75
2022/10/12 07:38:32;;;;;;;16.00;9.23;;;7.70;92.00;;;;;;5060647;28;20048;-74
2022/10/12 07:40:59;;;;;;;17.40;10.00;;;7.80;92.30;;;;;;5057947;28;20051;-75
2022/10/12 07:43:25;;;;;;;15.80;8.13;;;7.90;92.20;;;;;;5063530;28;20052;-76
2022/10/12 07:45:51;;;;;;;17.88;10.05;;;8.10;92.00;;;;;;5044802;28;20052;-76
2022/10/12 07:48:16;;;;;;;13.48;9.60;;;8.20;92.00;;;;;;5018188;28;20053;-76
2022/10/12 07:50:42;;;;;;;15.18;9.00;;;8.30;92.30;;;;;;5044160;28;20048;-76
2022/10/12 07:53:08;;;;;;;18.02;8.45;;;8.50;91.80;;;;;;5046652;28;20111;-75
2022/10/12 07:55:33;;;;;;;27.15;11.18;;;8.50;91.20;;;;;;5030325;28;20127;-76
2022/10/12 07:57:59;;;;;;;21.35;9.85;;;8.60;91.40;;;;;;5058809;28;20115;-76
2022/10/12 08:00:26;;;;;;;18.10;10.25;;;8.70;91.40;;;;;;5059831;28;20139;-76
2022/10/12 08:02:51;;;;;;;16.23;8.75;;;8.80;91.50;;;;;;5060289;28;20048;-75
2022/10/12 08:05:20;;;;;;;20.30;9.20;;;8.90;91.50;;;;;;5027901;28;20045;-75
2022/10/12 08:07:46;;;;;;;19.38;8.68;;;9.00;91.40;;;;;;5059600;28;20041;-76
2022/10/12 08:10:12;;;;;;;18.67;8.18;;;9.00;91.40;;;;;;5026436;28;20131;-76
2022/10/12 08:12:38;;;;;;;16.85;8.63;;;9.10;91.30;;;;;;5048582;28;20136;-76
2022/10/12 08:15:05;;;;;;;14.10;8.13;;;9.10;91.10;;;;;;5041906;28;20040;-76
2022/10/12 08:17:30;;;;;;;23.40;9.15;;;9.30;91.00;;;;;;5061000;28;20044;-76
2022/10/12 08:19:56;;;;;;;17.63;8.10;;;9.40;90.70;;;;;;5046089;28;20101;-75
2022/10/12 08:22:22;;;;;;;13.77;8.82;;;9.50;90.50;;;;;;5046115;28;20191;-76
2022/10/12 08:24:47;;;;;;;20.52;8.40;;;9.60;90.60;;;;;;5059566;28;20087;-76
2022/10/12 08:27:13;;;;;;;20.20;8.40;;;9.80;90.20;;;;;;5058927;28;20044;-76
2022/10/12 08:29:39;;;;;;;16.73;9.75;;;9.80;90.20;;;;;;5045624;28;20416;-75
2022/10/12 08:32:05;;;;;;;18.70;8.70;;;10.00;89.90;;;;;;5043958;28;20032;-77
2022/10/12 08:34:31;;;;;;;20.90;8.82;;;10.00;89.50;;;;;;5060226;28;20128;-76
2022/10/12 08:36:58;;;;;;;15.52;8.57;;;10.20;89.40;;;;;;5058823;28;20483;-75
2022/10/12 08:39:24;;;;;;;14.77;8.30;;;10.30;89.10;;;;;;5059686;28;20052;-75
2022/10/12 08:42:19;;;;;;;13.40;6.72;;;10.40;88.90;;;;;;5043097;28;20048;-75
2022/10/12 08:44:49;;;;;;;14.57;7.72;;;10.60;88.70;;;;;;5058301;28;20036;-75
2022/10/12 08:47:17;;;;;;;14.00;7.18;;;10.70;88.00;;;;;;5045876;28;20065;-75
2022/10/12 08:49:44;;;;;;;12.55;5.82;;;10.90;87.80;;;;;;5063528;28;20095;-74
2022/10/12 08:52:35;;;;;;;12.90;5.47;;;11.00;87.40;;;;;;5060205;28;20055;-75
2022/10/12 08:55:19;;;;;;;14.20;5.65;;;11.10;86.40;;;;;;5057502;28;20047;-75
2022/10/12 08:57:45;;;;;;;10.63;4.28;;;11.30;86.80;;;;;;5060754;28;20788;-75
2022/10/12 09:00:17;;;;;;;12.98;4.85;;;11.40;85.90;;;;;;5041791;28;20095;-75
2022/10/12 09:02:49;;;;;;;11.40;4.68;;;11.50;86.10;;;;;;5041511;28;20041;-76
2022/10/12 09:05:21;;;;;;;14.00;5.15;;;11.60;84.90;;;;;;5057614;28;20129;-75
2022/10/12 09:08:06;;;;;;;14.52;5.55;;;11.70;85.30;;;;;;5059534;28;20048;-75
2022/10/12 09:10:45;;;;;;;14.35;5.75;;;11.80;84.10;;;;;;5041449;28;20103;-75
2022/10/12 09:13:20;;;;;;;16.92;4.93;;;12.00;84.70;;;;;;5056979;28;20497;-75
2022/10/12 09:16:11;;;;;;;18.13;5.65;;;12.10;83.80;;;;;;5055103;28;20037;-75
2022/10/12 09:18:43;;;;;;;13.85;4.32;;;12.20;83.70;;;;;;5038298;28;20056;-74
2022/10/12 09:21:17;;;;;;;11.02;4.22;;;12.30;83.60;;;;;;5033898;28;20584;-75
2022/10/12 09:23:43;;;;;;;14.85;5.82;;;12.40;83.30;;;;;;5052798;28;20056;-75
2022/10/12 09:26:12;;;;;;;14.50;4.25;;;12.40;78.70;;;;;;5050493;28;20052;-75
2022/10/12 09:28:52;;;;;;;14.65;5.22;;;12.50;79.40;;;;;;5034839;28;20053;-75
2022/10/12 09:31:37;;;;;;;17.38;4.15;;;12.60;80.60;;;;;;5049477;28;20036;-75
2022/10/12 09:34:10;;;;;;;13.95;4.45;;;12.70;79.90;;;;;;5048917;28;20573;-75
2022/10/12 09:36:38;;;;;;;12.95;5.07;;;12.80;77.70;;;;;;5031663;28;20056;-75
2022/10/12 09:39:11;;;;;;;12.52;3.80;;;13.00;79.80;;;;;;5048806;28;20053;-74
2022/10/12 09:41:41;;;;;;;15.10;4.55;;;13.10;79.60;;;;;;5051264;28;20049;-75
2022/10/12 09:44:25;;;;;;;14.07;4.13;;;13.20;79.70;;;;;;5030064;28;20409;-74
2022/10/12 09:46:56;;;;;;;11.43;4.20;;;13.30;78.00;;;;;;5046843;28;20132;-75
2022/10/12 09:49:26;;;;;;;11.80;3.50;;;13.50;77.10;;;;;;5035213;28;20056;-75
2022/10/12 09:51:59;;;;;;;15.90;3.63;;;13.50;77.50;;;;;;5031740;28;20099;-75
2022/10/12 09:54:26;;;;;;;12.48;3.47;;;13.60;75.80;;;;;;5050136;28;20049;-75
2022/10/12 09:56:54;;;;;;;12.10;3.83;;;13.70;76.50;;;;;;5047558;28;20048;-75
2022/10/12 09:59:26;;;;;;;7.35;3.65;;;13.80;75.70;;;;;;5049722;28;20053;-74
2022/10/12 10:02:07;;;;;;;12.32;3.47;;;14.00;75.70;;;;;;5050451;28;20182;-74
2022/10/12 10:04:33;;;;;;;15.00;3.13;;;14.00;72.50;;;;;;5030969;28;20045;-73
2022/10/12 10:07:33;;;;;;;11.13;3.80;;;14.00;73.00;;;;;;5054553;28;20048;-75
2022/10/12 10:10:09;;;;;;;10.55;3.83;;;14.10;72.40;;;;;;5007296;28;20126;-74
2022/10/12 10:13:02;;;;;;;15.02;3.67;;;14.30;72.90;;;;;;5055388;28;20493;-75
2022/10/12 10:15:39;;;;;;;16.42;3.38;;;14.40;71.80;;;;;;5054948;28;20064;-74
2022/10/12 10:18:17;;;;;;;9.60;3.00;;;14.50;72.20;;;;;;5055293;28;20056;-74
2022/10/12 10:20:51;;;;;;;9.55;3.25;;;14.60;72.00;;;;;;5055161;28;20058;-74
2022/10/12 10:23:27;;;;;;;13.52;4.35;;;14.50;66.70;;;;;;5053467;28;20502;-74
2022/10/12 10:26:12;;;;;;;9.85;3.50;;;14.60;67.60;;;;;;5055259;28;20041;-74
2022/10/12 10:28:40;;;;;;;12.32;3.17;;;14.70;68.40;;;;;;5036544;28;20045;-74
2022/10/12 10:31:24;;;;;;;10.88;3.42;;;14.80;69.30;;;;;;5038928;28;20697;-75
2022/10/12 10:34:17;;;;;;;10.80;3.60;;;15.00;69.10;;;;;;5052670;28;20127;-74
2022/10/12 10:37:04;;;;;;;8.07;2.83;;;15.10;67.90;;;;;;5055904;28;20043;-74
2022/10/12 10:39:52;;;;;;;10.88;3.03;;;15.10;67.50;;;;;;5056181;28;20109;-75
2022/10/12 10:42:36;;;;;;;11.07;3.90;;;15.30;68.50;;;;;;5054129;28;20145;-74
2022/10/12 10:45:42;;;;;;;12.35;3.63;;;15.40;67.90;;;;;;5056273;28;20047;-75
2022/10/12 10:48:23;;;;;;;13.23;3.75;;;15.50;65.10;;;;;;5057056;28;20052;-74
2022/10/12 10:51:01;;;;;;;12.13;3.10;;;15.60;64.70;;;;;;5040549;28;20052;-74
2022/10/12 10:53:49;;;;;;;14.25;3.75;;;15.70;66.00;;;;;;5055950;28;20072;-75
2022/10/12 10:56:27;;;;;;;9.70;2.60;;;15.70;65.30;;;;;;5056011;28;20049;-74
2022/10/12 10:59:00;;;;;;;10.23;2.63;;;15.80;64.30;;;;;;5053272;28;20045;-75
2022/10/12 11:01:47;;;;;;;18.07;3.27;;;15.90;64.40;;;;;;5051668;28;20040;-74
2022/10/12 11:04:18;;;;;;;12.30;3.17;;;15.90;63.40;;;;;;5052599;28;20077;-74
2022/10/12 11:06:49;;;;;;;11.25;3.20;;;16.00;62.00;;;;;;5058010;28;20048;-75
2022/10/12 11:09:51;;;;;;;9.18;3.20;;;16.00;63.70;;;;;;5040141;28;20315;-74
2022/10/12 11:12:30;;;;;;;10.35;3.38;;;16.10;63.90;;;;;;5053331;28;20551;-75
2022/10/12 11:15:29;;;;;;;13.43;3.53;;;16.30;63.60;;;;;;5048634;28;20400;-74
2022/10/12 11:18:10;;;;;;;16.33;4.35;;;16.30;61.80;;;;;;5053000;28;20519;-75
2022/10/12 11:20:50;;;;;;;11.65;3.15;;;16.50;62.60;;;;;;5057610;28;20071;-75
2022/10/12 11:23:34;;;;;;;12.50;2.97;;;16.40;62.20;;;;;;5056262;28;20058;-74
2022/10/12 11:26:30;;;;;;;10.68;3.00;;;16.50;61.30;;;;;;5054663;28;20045;-75
2022/10/12 11:28:59;;;;;;;14.02;3.17;;;16.70;60.60;;;;;;5054556;28;20123;-76
2022/10/12 11:32:02;;;;;;;12.68;3.65;;;16.80;61.30;;;;;;5055187;28;20032;-75
2022/10/12 11:34:35;;;;;;;9.90;2.75;;;16.80;61.20;;;;;;5049233;28;20052;-75
2022/10/12 11:37:02;;;;;;;12.05;3.75;;;17.00;61.60;;;;;;5054908;28;20059;-75
2022/10/12 11:39:42;;;;;;;11.43;3.50;;;17.10;61.50;;;;;;5061809;28;20090;-75
2022/10/12 11:42:16;;;;;;;11.15;3.08;;;17.20;59.30;;;;;;5059274;28;20523;-75
2022/10/12 11:44:43;;;;;;;16.63;4.13;;;17.40;60.30;;;;;;5039261;28;20044;-75
2022/10/12 11:47:28;;;;;;;17.27;3.90;;;17.40;58.90;;;;;;5059750;28;20424;-75
2022/10/12 11:49:57;;;;;;;11.38;3.25;;;17.20;57.10;;;;;;5065685;28;20098;-74
2022/10/12 11:52:25;;;;;;;10.60;3.78;;;17.20;58.90;;;;;;5071690;28;20044;-75
2022/10/12 11:55:03;;;;;;;12.45;3.95;;;17.10;59.60;;;;;;5072164;28;20047;-75
2022/10/12 11:57:34;;;;;;;10.43;3.67;;;17.20;59.40;;;;;;5072466;28;20040;-74
2022/10/12 12:00:04;;;;;;;11.07;2.88;;;17.50;60.30;;;;;;5072468;28;20112;-75
2022/10/12 12:02:38;;;;;;;11.82;3.63;;;17.40;57.50;;;;;;5072567;28;20048;-74
2022/10/12 12:05:06;;;;;;;13.02;3.55;;;17.60;58.70;;;;;;5074244;28;20037;-75
2022/10/12 12:07:37;;;;;;;12.70;3.72;;;17.80;58.60;;;;;;5041065;28;20041;-74
2022/10/12 12:10:33;;;;;;;10.32;3.55;;;17.90;57.00;;;;;;5073930;28;20076;-74
2022/10/12 12:13:19;;;;;;;12.38;4.65;;;17.90;57.20;;;;;;5052538;28;20055;-74
2022/10/12 12:15:51;;;;;;;12.38;3.70;;;18.00;57.10;;;;;;5074185;28;20040;-75
2022/10/12 12:18:21;;;;;;;14.13;3.63;;;18.10;57.50;;;;;;5074176;28;20053;-75
2022/10/12 12:20:47;;;;;;;11.88;3.28;;;18.30;56.60;;;;;;5074034;28;20045;-75
2022/10/12 12:23:23;;;;;;;8.38;3.50;;;18.30;56.60;;;;;;5073928;28;20511;-74
2022/10/12 12:26:09;;;;;;;8.85;3.72;;;18.40;56.90;;;;;;5074000;28;20119;-75
2022/10/12 12:28:47;;;;;;;8.70;3.03;;;18.40;55.80;;;;;;5057168;28;20443;-74
2022/10/12 12:31:21;;;;;;;9.48;3.72;;;18.30;53.30;;;;;;5073618;28;20397;-74
2022/10/12 12:33:50;;;;;;;8.57;3.55;;;18.10;55.20;;;;;;5073583;28;20465;-74
2022/10/12 12:36:52;;;;;;;10.30;3.33;;;18.20;55.20;;;;;;5073780;28;20051;-75
2022/10/12 12:39:26;;;;;;;9.30;3.40;;;18.00;52.90;;;;;;5016111;28;20585;-75
2022/10/12 12:41:57;;;;;;;11.00;4.15;;;18.00;55.10;;;;;;5064428;28;20052;-75
2022/10/12 12:44:43;;;;;;;9.25;3.00;;;18.10;54.30;;;;;;5072615;28;20109;-75
2022/10/12 12:47:09;;;;;;;11.02;3.47;;;18.10;54.70;;;;;;5072359;28;20064;-76
2022/10/12 12:49:52;;;;;;;11.00;3.17;;;18.30;54.60;;;;;;5073091;28;20052;-75
2022/10/12 12:52:23;;;;;;;11.13;3.50;;;18.50;53.30;;;;;;5073093;28;20072;-76
2022/10/12 12:55:10;;;;;;;9.65;3.50;;;18.50;54.90;;;;;;5073032;28;20098;-75
2022/10/12 12:58:00;;;;;;;7.47;2.92;;;18.50;51.50;;;;;;5072969;28;20044;-76
2022/10/12 13:00:36;;;;;;;8.88;2.85;;;18.50;52.80;;;;;;5073192;28;20443;-76
2022/10/12 13:03:20;;;;;;;9.13;2.95;;;18.50;53.50;;;;;;5073056;28;20393;-75
2022/10/12 13:05:52;;;;;;;;;;;18.50;52.20;;;;;;5056631;28;20043;-76
2022/10/12 13:08:33;;;;;;;11.35;3.75;;;18.50;51.70;;;;;;5072682;28;20463;-75
2022/10/12 13:10:59;;;;;;;14.35;4.20;;;18.70;53.60;;;;;;5056138;28;20045;-75